Little Cedar, Iowa
Current Conditions -  °F | °C
As of 11:36 AM on Sunday 23 Nov 2014 (Local Time) from KAUM Reporting Station
Moderate Fog Moderate Fog  
Wind Chill: 44°   Ceiling: 200
Heat Index: 48°   Visibility: 0.5mi
Dew Point: 48°   Wind: 10mph
Humidity: 100%   Direction: 180°S
Pressure: 29.43"   Gusts: NA
Location:  43.38°N, 92.73°W
Report Text: KAUM 231736Z AUTO 18009KT 1/2SM FG OVC002 09/09 A2943 RMK AO2
Loading
Personal Weather Stations






























Interactive Weather Map New forecast layout! Learn more

10-Day Weather Forecast

Advertisements
Track Severe Weather on mobile